createdAt,value
2023-05-20T00:02:31.390Z,12.00
2023-05-20T00:17:33.135Z,11.63
2023-05-20T00:32:35.463Z,11.67
2023-05-20T00:47:37.434Z,9.83
2023-05-20T01:02:39.307Z,11.07
2023-05-20T01:17:47.423Z,9.83
2023-05-20T01:32:58.202Z,9.83
2023-05-20T01:48:00.192Z,10.57
2023-05-20T02:03:03.696Z,10.00
2023-05-20T02:18:05.784Z,10.17
2023-05-20T02:33:09.073Z,11.07
2023-05-20T02:48:11.139Z,9.23
2023-05-20T03:03:13.727Z,9.80
2023-05-20T03:18:15.430Z,9.80
2023-05-20T03:33:17.166Z,9.40
2023-05-20T03:48:18.934Z,10.47
2023-05-20T04:03:20.757Z,11.27
2023-05-20T04:18:22.567Z,11.43
2023-05-20T04:33:24.234Z,11.80
2023-05-20T04:48:25.923Z,13.23
2023-05-20T05:03:27.687Z,13.70
2023-05-20T05:18:29.644Z,15.60
2023-05-20T05:33:31.600Z,16.50
2023-05-20T05:48:33.632Z,18.97
2023-05-20T06:03:35.444Z,19.43
2023-05-20T06:18:37.161Z,20.20
2023-05-20T06:33:39.024Z,22.73
2023-05-20T06:48:40.923Z,22.07
2023-05-20T07:03:44.398Z,22.40
2023-05-20T07:18:46.288Z,21.97
2023-05-20T07:33:47.970Z,22.90
2023-05-20T07:48:49.706Z,24.57
2023-05-20T08:03:51.460Z,24.73
2023-05-20T08:18:53.385Z,23.87
2023-05-20T08:33:55.206Z,24.27
2023-05-20T08:48:57.090Z,25.47
2023-05-20T09:03:58.995Z,26.20
2023-05-20T09:19:01.357Z,26.30
2023-05-20T09:34:03.655Z,27.30
2023-05-20T09:49:07.906Z,28.37
2023-05-20T10:04:12.689Z,22.97
2023-05-20T10:19:32.890Z,27.07
2023-05-20T10:34:46.924Z,27.70
2023-05-20T10:49:48.678Z,25.33
2023-05-20T11:04:50.736Z,25.73
2023-05-20T11:19:52.499Z,27.67
2023-05-20T11:34:54.555Z,26.63
2023-05-20T11:49:56.777Z,26.57
2023-05-20T12:04:58.616Z,24.20
2023-05-20T12:20:00.779Z,27.60
2023-05-20T12:35:02.901Z,25.53
2023-05-20T12:50:05.087Z,22.47
2023-05-20T13:05:07.168Z,21.97
2023-05-20T13:20:11.170Z,22.83
2023-05-20T13:35:13.228Z,23.77
2023-05-20T13:50:15.338Z,23.20
2023-05-20T14:05:18.926Z,24.43
2023-05-20T14:20:20.751Z,22.77
2023-05-20T14:35:22.659Z,23.53
2023-05-20T14:50:24.409Z,25.47
2023-05-20T15:05:26.241Z,26.30
2023-05-20T15:20:28.020Z,25.80
2023-05-20T15:35:29.835Z,23.60
2023-05-20T15:50:32.006Z,25.43
2023-05-20T16:05:34.066Z,23.50
2023-05-20T16:20:36.151Z,24.67
2023-05-20T16:35:38.309Z,22.30
2023-05-20T16:50:39.983Z,22.73
2023-05-20T17:05:43.746Z,22.93
2023-05-20T17:20:45.762Z,23.93
2023-05-20T17:35:47.543Z,20.53
2023-05-20T17:50:49.415Z,22.40
2023-05-20T18:05:51.669Z,21.33
2023-05-20T18:20:54.459Z,19.87
2023-05-20T18:35:56.895Z,20.67
2023-05-20T18:50:58.788Z,20.37
2023-05-20T19:06:01.046Z,20.20
2023-05-20T19:21:02.974Z,22.67
2023-05-20T19:36:05.865Z,20.17
2023-05-20T19:51:07.957Z,20.33
2023-05-20T20:06:12.951Z,19.80
2023-05-20T20:21:15.009Z,18.47
2023-05-20T20:36:16.980Z,20.27
2023-05-20T20:51:18.972Z,18.43
2023-05-20T21:06:20.994Z,15.80
2023-05-20T21:21:22.708Z,17.47
2023-05-20T21:36:24.458Z,18.23
2023-05-20T21:51:26.121Z,15.67
2023-05-20T22:06:27.830Z,14.60
2023-05-20T22:21:32.133Z,14.17
2023-05-20T22:36:36.518Z,15.53
2023-05-20T23:06:40.488Z,14.13
2023-05-20T23:21:42.737Z,14.60
2023-05-20T23:36:45.787Z,16.23
2023-05-20T23:51:47.536Z,15.17
